AirNav   Everest Fuels
 
 356 users online  

19MI Mecosta County Medical Center Heliport
Big Rapids, Michigan, USA

GOING TO BIG RAPIDS?


FAA INFORMATION EFFECTIVE 07 NOVEMBER 2019

Location

FAA Identifier: 19MI
Lat/Long: 43-41-41.5820N 085-28-25.6590W
43-41.693033N 085-28.427650W
43.6948839,-85.4737942
(estimated)
Elevation: 911 ft. / 278 m (estimated)
Variation: 04W (1985)
Time zone: UTC -5 (UTC -4 during Daylight Saving Time)
Zip code: 49307

Heliport Operations

Heliport use: Private use, MEDICAL USE.
Activation date: 07/1989
Control tower: no
ARTCC: MINNEAPOLIS CENTER
FSS: LANSING FLIGHT SERVICE STATION
Attendance: UNATNDD
Wind indicator: yes
Segmented circle: no

Heliport Communications

WX AWOS-3P at RQB (2.1 nm NW): 125.875 (231-796-0884)

Nearby radio navigation aids

VOR radial/distance  VOR name  Freq  Var
HICr057/12.8WHITE CLOUD VOR/DME117.6001W
MOPr283/32.3MOUNT PLEASANT VOR/DME110.6005W

Heliport Services

Runway Information

Helipad H1

Dimensions: 60 x 60 ft. / 18 x 18 m
Surface: concrete
Runway edge lights: PERI
Latitude: 43-41.693033N
Longitude: 085-28.427650W
Elevation: 911.0 ft.
Traffic pattern: leftleft

Heliport Ownership and Management from official FAA records

Ownership: Privately-owned
Owner: SPECTRUM HEALTH BIG RAPIDS HOSPITAL
605 OAK ST.
BIG RAPIDS, MI 49307
Phone 616-796-8691
Manager: GENE MAGOON
605 OAK ST
BIG RAPIDS, MI 49307
Phone (616) 788-9836
ADDITIONAL CONTACT: TOM KNOERL 605 OAK ST BIG RAPIDS, MI 49307 231-591-4253

Additional Remarks

FOR CD CTC MINNEAPOLIS ARTCC AT 651-463-5588.

Instrument Procedures

There are no published instrument procedures at 19MI.

Some nearby airports with instrument procedures:

KRQB - Roben-Hood Airport (2 nm NW)
13C - Lakeview Airport-Griffith Field (17 nm SE)
7D3 - Baldwin Municipal Airport (19 nm NW)
KFFX - Fremont Municipal Airport (27 nm SW)
KMOP - Mount Pleasant Municipal Airport (32 nm E)
 
Loc | Ops | Rwys | IFR | FBO | Links
Com | Nav | Svcs | Stats | Notes
Area around 19MI (Mecosta County Medical Center Heliport)
 
Road maps at: MapQuest Bing Google
 
Aerial photo
No photo
 
Sectional chart

 
Airport distance calculator
Flying to Mecosta County Medical Center Heliport? Find the distance to fly.

From to 19MI

Sunrise and sunset
Times for 12-Nov-2019
 Local
(UTC-5)
 Zulu
(UTC)
Morning civil twilight07:0312:03
Sunrise07:3312:33
Sunset17:1922:19
Evening civil twilight17:5022:50

Current date and time
Zulu (UTC)  12-Nov-2019 06:53:20
Local (UTC-5)  12-Nov-2019 01:53:20
 
METAR
KRQB 
2nm NW 
120635Z AUTO 00000KT 10SM BKN043 OVC050 M07/M11 A3022 RMK AO2 T10711110
TAF
KMKG 
46nm SW 
120540Z 1206/1306 32020G30KT 4SM -SHSN BR OVC025 TEMPO 1206/1209 2SM -SHSN BR OVC015 FM120900 32016G26KT P6SM -SHSN OVC025 TEMPO 1209/1212 3SM -SHSN BR FM121500 32012G22KT P6SM -SHSN BKN025 FM122200 28010KT 4SM -SHSN BKN025
KMBL 
48nm NW 
120520Z 1206/1306 01010KT 3/4SM -SHSN OVC006 FM121300 34011G22KT 2SM -SHSN BKN015 FM121800 30008KT P6SM VCSH BKN024 FM130000 28005KT P6SM BKN070 FM130200 24005KT P6SM OVC040
KGRR 
49nm S 
120540Z 1206/1306 34005KT P6SM -SHSN BKN025 TEMPO 1206/1208 3SM -SHSN OVC015 FM120800 32010KT P6SM -SHSN BKN025 FM121500 32010G18KT P6SM VCSH BKN025 FM130000 28006KT P6SM VCSH BKN025 FM130300 24006KT 4SM -SHSN OVC025
NOTAMs
Click for the latest NOTAMs
NOTAMs are issued by the DoD/FAA and will open in a separate window not controlled by AirNav.

 

 
 

Would you like to see your business listed on this page?

 If your business provides an interesting product or service to pilots, flight crews, aircraft, or users of the Mecosta County Medical Center Heliport, you should consider listing it here.  To start the listing process, click on the button below
 
Add a business
 

Other Pages about Mecosta County Medical Center Heliport

Update a link
 
Copyright © AirNav, LLC. All rights reserved. Privacy Policy  Contact